sensor_id;sensor_type;location;lat;lon;timestamp;temperature;humidity
7461;DHT22;6757;52.258;12.840;2023-09-19T00:00:19;17.50;99.90
7461;DHT22;6757;52.258;12.840;2023-09-19T00:02:52;17.50;99.90
7461;DHT22;6757;52.258;12.840;2023-09-19T00:05:19;17.50;99.90
7461;DHT22;6757;52.258;12.840;2023-09-19T00:07:50;17.50;99.90
7461;DHT22;6757;52.258;12.840;2023-09-19T00:10:19;17.50;99.90
7461;DHT22;6757;52.258;12.840;2023-09-19T00:12:48;17.50;99.90
7461;DHT22;6757;52.258;12.840;2023-09-19T00:15:17;17.50;99.90
7461;DHT22;6757;52.258;12.840;2023-09-19T00:17:44;17.50;99.90
7461;DHT22;6757;52.258;12.840;2023-09-19T00:20:11;17.50;99.90
7461;DHT22;6757;52.258;12.840;2023-09-19T00:22:40;17.50;99.90
7461;DHT22;6757;52.258;12.840;2023-09-19T00:25:08;17.50;99.90
7461;DHT22;6757;52.258;12.840;2023-09-19T00:27:37;17.50;99.90
7461;DHT22;6757;52.258;12.840;2023-09-19T00:30:09;17.50;99.90
7461;DHT22;6757;52.258;12.840;2023-09-19T00:32:40;17.50;99.90
7461;DHT22;6757;52.258;12.840;2023-09-19T00:35:07;17.50;99.90
7461;DHT22;6757;52.258;12.840;2023-09-19T00:37:36;17.50;99.90
7461;DHT22;6757;52.258;12.840;2023-09-19T00:40:03;17.50;99.90
7461;DHT22;6757;52.258;12.840;2023-09-19T00:42:32;17.40;99.90
7461;DHT22;6757;52.258;12.840;2023-09-19T00:45:00;17.40;99.90
7461;DHT22;6757;52.258;12.840;2023-09-19T00:47:30;17.50;99.90
7461;DHT22;6757;52.258;12.840;2023-09-19T00:49:57;17.40;99.90
7461;DHT22;6757;52.258;12.840;2023-09-19T00:52:25;17.40;99.90
7461;DHT22;6757;52.258;12.840;2023-09-19T00:54:52;17.40;99.90
7461;DHT22;6757;52.258;12.840;2023-09-19T00:57:20;17.40;99.90
7461;DHT22;6757;52.258;12.840;2023-09-19T00:59:50;17.40;99.90
7461;DHT22;6757;52.258;12.840;2023-09-19T01:02:19;17.40;99.90
7461;DHT22;6757;52.258;12.840;2023-09-19T01:04:48;17.40;99.90
7461;DHT22;6757;52.258;12.840;2023-09-19T01:07:15;17.40;99.90
7461;DHT22;6757;52.258;12.840;2023-09-19T01:09:42;17.30;99.90
7461;DHT22;6757;52.258;12.840;2023-09-19T01:12:11;17.30;99.90
7461;DHT22;6757;52.258;12.840;2023-09-19T01:14:47;17.30;99.90
7461;DHT22;6757;52.258;12.840;2023-09-19T01:17:27;17.30;99.90
7461;DHT22;6757;52.258;12.840;2023-09-19T01:20:15;17.30;99.90
7461;DHT22;6757;52.258;12.840;2023-09-19T01:22:56;17.20;99.90
7461;DHT22;6757;52.258;12.840;2023-09-19T01:28:47;17.20;99.90
7461;DHT22;6757;52.258;12.840;2023-09-19T01:31:23;17.20;99.90
7461;DHT22;6757;52.258;12.840;2023-09-19T01:34:01;17.10;99.90
7461;DHT22;6757;52.258;12.840;2023-09-19T01:36:31;17.10;99.90
7461;DHT22;6757;52.258;12.840;2023-09-19T01:39:02;17.10;99.90
7461;DHT22;6757;52.258;12.840;2023-09-19T01:41:51;17.00;99.90
7461;DHT22;6757;52.258;12.840;2023-09-19T01:44:28;17.00;99.90
7461;DHT22;6757;52.258;12.840;2023-09-19T01:47:00;17.00;99.90
7461;DHT22;6757;52.258;12.840;2023-09-19T01:49:39;16.90;99.90
7461;DHT22;6757;52.258;12.840;2023-09-19T01:52:12;16.90;99.90
7461;DHT22;6757;52.258;12.840;2023-09-19T01:54:46;16.90;99.90
7461;DHT22;6757;52.258;12.840;2023-09-19T01:57:20;16.90;99.90
7461;DHT22;6757;52.258;12.840;2023-09-19T01:59:54;16.80;99.90
7461;DHT22;6757;52.258;12.840;2023-09-19T02:02:27;16.80;99.90
7461;DHT22;6757;52.258;12.840;2023-09-19T02:04:55;16.80;99.90
7461;DHT22;6757;52.258;12.840;2023-09-19T02:07:22;16.70;99.90
7461;DHT22;6757;52.258;12.840;2023-09-19T02:09:49;16.70;99.90
7461;DHT22;6757;52.258;12.840;2023-09-19T02:12:16;16.60;99.90
7461;DHT22;6757;52.258;12.840;2023-09-19T02:14:43;16.60;99.90
7461;DHT22;6757;52.258;12.840;2023-09-19T02:17:10;16.60;99.90
7461;DHT22;6757;52.258;12.840;2023-09-19T02:19:39;16.60;99.90
7461;DHT22;6757;52.258;12.840;2023-09-19T02:22:07;16.50;99.90
7461;DHT22;6757;52.258;12.840;2023-09-19T02:24:36;16.50;99.90
7461;DHT22;6757;52.258;12.840;2023-09-19T02:27:04;16.50;99.90
7461;DHT22;6757;52.258;12.840;2023-09-19T02:29:30;16.40;99.90
7461;DHT22;6757;52.258;12.840;2023-09-19T02:32:00;16.30;99.90
7461;DHT22;6757;52.258;12.840;2023-09-19T02:34:28;16.30;99.90
7461;DHT22;6757;52.258;12.840;2023-09-19T02:36:56;16.30;99.90
7461;DHT22;6757;52.258;12.840;2023-09-19T02:39:23;16.30;99.90
7461;DHT22;6757;52.258;12.840;2023-09-19T02:41:50;16.30;99.90
7461;DHT22;6757;52.258;12.840;2023-09-19T02:44:17;16.20;99.90
7461;DHT22;6757;52.258;12.840;2023-09-19T02:46:45;16.20;99.90
7461;DHT22;6757;52.258;12.840;2023-09-19T02:49:12;16.20;99.90
7461;DHT22;6757;52.258;12.840;2023-09-19T02:51:39;16.10;99.90
7461;DHT22;6757;52.258;12.840;2023-09-19T02:54:08;16.10;99.90
7461;DHT22;6757;52.258;12.840;2023-09-19T02:56:35;16.10;99.90
7461;DHT22;6757;52.258;12.840;2023-09-19T02:59:02;16.00;99.90
7461;DHT22;6757;52.258;12.840;2023-09-19T03:01:29;16.00;99.90
7461;DHT22;6757;52.258;12.840;2023-09-19T03:03:56;15.90;99.90
7461;DHT22;6757;52.258;12.840;2023-09-19T03:06:23;15.90;99.90
7461;DHT22;6757;52.258;12.840;2023-09-19T03:08:50;15.80;99.90
7461;DHT22;6757;52.258;12.840;2023-09-19T03:11:18;15.80;99.90
7461;DHT22;6757;52.258;12.840;2023-09-19T03:13:51;15.70;99.90
7461;DHT22;6757;52.258;12.840;2023-09-19T03:16:18;15.70;99.90
7461;DHT22;6757;52.258;12.840;2023-09-19T03:18:47;15.70;99.90
7461;DHT22;6757;52.258;12.840;2023-09-19T03:21:15;15.60;99.90
7461;DHT22;6757;52.258;12.840;2023-09-19T03:23:42;15.60;99.90
7461;DHT22;6757;52.258;12.840;2023-09-19T03:26:10;15.60;99.90
7461;DHT22;6757;52.258;12.840;2023-09-19T03:28:41;15.70;99.90
7461;DHT22;6757;52.258;12.840;2023-09-19T03:31:08;15.70;99.90
7461;DHT22;6757;52.258;12.840;2023-09-19T03:33:34;15.70;99.90
7461;DHT22;6757;52.258;12.840;2023-09-19T03:36:02;15.70;99.90
7461;DHT22;6757;52.258;12.840;2023-09-19T03:38:31;15.80;99.90
7461;DHT22;6757;52.258;12.840;2023-09-19T03:40:59;15.80;99.90
7461;DHT22;6757;52.258;12.840;2023-09-19T03:43:26;15.90;99.90
7461;DHT22;6757;52.258;12.840;2023-09-19T03:45:55;15.90;99.90
7461;DHT22;6757;52.258;12.840;2023-09-19T03:48:22;15.90;99.90
7461;DHT22;6757;52.258;12.840;2023-09-19T03:50:49;15.90;99.90
7461;DHT22;6757;52.258;12.840;2023-09-19T03:53:16;15.90;99.90
7461;DHT22;6757;52.258;12.840;2023-09-19T03:55:44;15.90;99.90
7461;DHT22;6757;52.258;12.840;2023-09-19T03:58:12;15.90;99.90
7461;DHT22;6757;52.258;12.840;2023-09-19T04:00:39;15.90;99.90
7461;DHT22;6757;52.258;12.840;2023-09-19T04:03:07;15.90;99.90
7461;DHT22;6757;52.258;12.840;2023-09-19T04:05:36;15.90;99.90
7461;DHT22;6757;52.258;12.840;2023-09-19T04:08:02;15.90;99.90
7461;DHT22;6757;52.258;12.840;2023-09-19T04:10:29;15.80;99.90
7461;DHT22;6757;52.258;12.840;2023-09-19T04:12:56;15.80;99.90
7461;DHT22;6757;52.258;12.840;2023-09-19T04:15:24;15.80;99.90
7461;DHT22;6757;52.258;12.840;2023-09-19T04:17:51;15.80;99.90
7461;DHT22;6757;52.258;12.840;2023-09-19T04:20:19;15.80;99.90
7461;DHT22;6757;52.258;12.840;2023-09-19T04:22:48;15.80;99.90
7461;DHT22;6757;52.258;12.840;2023-09-19T04:25:15;15.80;99.90
7461;DHT22;6757;52.258;12.840;2023-09-19T04:27:42;15.80;99.90
7461;DHT22;6757;52.258;12.840;2023-09-19T04:30:10;15.80;99.90
7461;DHT22;6757;52.258;12.840;2023-09-19T04:32:38;15.80;99.90
7461;DHT22;6757;52.258;12.840;2023-09-19T04:35:06;15.80;99.90
7461;DHT22;6757;52.258;12.840;2023-09-19T04:37:37;15.80;99.90
7461;DHT22;6757;52.258;12.840;2023-09-19T04:40:06;15.80;99.90
7461;DHT22;6757;52.258;12.840;2023-09-19T04:42:38;15.80;99.90
7461;DHT22;6757;52.258;12.840;2023-09-19T04:45:07;15.80;99.90
7461;DHT22;6757;52.258;12.840;2023-09-19T04:47:35;15.80;99.90
7461;DHT22;6757;52.258;12.840;2023-09-19T04:50:05;15.80;99.90
7461;DHT22;6757;52.258;12.840;2023-09-19T04:52:39;15.80;99.90
7461;DHT22;6757;52.258;12.840;2023-09-19T04:55:09;15.80;99.90
7461;DHT22;6757;52.258;12.840;2023-09-19T04:57:39;15.80;99.90
7461;DHT22;6757;52.258;12.840;2023-09-19T05:00:06;15.80;99.90
7461;DHT22;6757;52.258;12.840;2023-09-19T05:02:38;15.80;99.90
7461;DHT22;6757;52.258;12.840;2023-09-19T05:05:06;15.80;99.90
7461;DHT22;6757;52.258;12.840;2023-09-19T05:07:34;15.80;99.90
7461;DHT22;6757;52.258;12.840;2023-09-19T05:10:04;15.80;99.90
7461;DHT22;6757;52.258;12.840;2023-09-19T05:12:33;15.80;99.90
7461;DHT22;6757;52.258;12.840;2023-09-19T05:15:00;15.80;99.90
7461;DHT22;6757;52.258;12.840;2023-09-19T05:17:28;15.80;99.90
7461;DHT22;6757;52.258;12.840;2023-09-19T05:19:56;15.90;99.90
7461;DHT22;6757;52.258;12.840;2023-09-19T05:22:23;15.80;99.90
7461;DHT22;6757;52.258;12.840;2023-09-19T05:24:51;15.90;99.90
7461;DHT22;6757;52.258;12.840;2023-09-19T05:27:20;15.90;99.90
7461;DHT22;6757;52.258;12.840;2023-09-19T05:29:47;15.90;99.90
7461;DHT22;6757;52.258;12.840;2023-09-19T05:32:16;15.90;99.90
7461;DHT22;6757;52.258;12.840;2023-09-19T05:34:43;15.80;99.90
7461;DHT22;6757;52.258;12.840;2023-09-19T05:37:10;15.80;99.90
7461;DHT22;6757;52.258;12.840;2023-09-19T05:39:37;15.80;99.90
7461;DHT22;6757;52.258;12.840;2023-09-19T05:42:04;15.80;99.90
7461;DHT22;6757;52.258;12.840;2023-09-19T05:44:34;15.80;99.90
7461;DHT22;6757;52.258;12.840;2023-09-19T05:47:01;15.70;99.90
7461;DHT22;6757;52.258;12.840;2023-09-19T05:49:28;15.70;99.90
7461;DHT22;6757;52.258;12.840;2023-09-19T05:51:55;15.70;99.90
7461;DHT22;6757;52.258;12.840;2023-09-19T05:54:24;15.70;99.90
7461;DHT22;6757;52.258;12.840;2023-09-19T05:56:51;15.70;99.90
7461;DHT22;6757;52.258;12.840;2023-09-19T05:59:18;15.70;99.90
7461;DHT22;6757;52.258;12.840;2023-09-19T06:01:47;15.70;99.90
7461;DHT22;6757;52.258;12.840;2023-09-19T06:04:14;15.70;99.90
7461;DHT22;6757;52.258;12.840;2023-09-19T06:06:41;15.70;99.90
7461;DHT22;6757;52.258;12.840;2023-09-19T06:09:08;15.70;99.90
7461;DHT22;6757;52.258;12.840;2023-09-19T06:11:35;15.80;99.90
7461;DHT22;6757;52.258;12.840;2023-09-19T06:14:03;15.80;99.90
7461;DHT22;6757;52.258;12.840;2023-09-19T06:16:30;15.80;99.90
7461;DHT22;6757;52.258;12.840;2023-09-19T06:18:59;15.90;99.90
7461;DHT22;6757;52.258;12.840;2023-09-19T06:21:26;16.00;99.90
7461;DHT22;6757;52.258;12.840;2023-09-19T06:23:53;16.00;99.90
7461;DHT22;6757;52.258;12.840;2023-09-19T06:26:20;16.10;99.90
7461;DHT22;6757;52.258;12.840;2023-09-19T06:28:47;16.20;99.90
7461;DHT22;6757;52.258;12.840;2023-09-19T06:31:14;16.30;99.90
7461;DHT22;6757;52.258;12.840;2023-09-19T06:33:41;16.40;99.90
7461;DHT22;6757;52.258;12.840;2023-09-19T06:36:10;16.50;99.90
7461;DHT22;6757;52.258;12.840;2023-09-19T06:38:36;16.60;99.90
7461;DHT22;6757;52.258;12.840;2023-09-19T06:41:06;16.70;99.90
7461;DHT22;6757;52.258;12.840;2023-09-19T06:43:35;16.80;99.90
7461;DHT22;6757;52.258;12.840;2023-09-19T06:46:01;16.90;99.90
7461;DHT22;6757;52.258;12.840;2023-09-19T06:48:28;17.10;99.90
7461;DHT22;6757;52.258;12.840;2023-09-19T06:50:55;17.20;99.90
7461;DHT22;6757;52.258;12.840;2023-09-19T06:53:25;17.30;99.90
7461;DHT22;6757;52.258;12.840;2023-09-19T06:55:52;17.40;99.90
7461;DHT22;6757;52.258;12.840;2023-09-19T06:58:19;17.50;99.90
7461;DHT22;6757;52.258;12.840;2023-09-19T07:00:46;17.60;99.90
7461;DHT22;6757;52.258;12.840;2023-09-19T07:03:15;17.70;99.90
7461;DHT22;6757;52.258;12.840;2023-09-19T07:05:44;17.80;99.90
7461;DHT22;6757;52.258;12.840;2023-09-19T07:08:11;17.90;99.90
7461;DHT22;6757;52.258;12.840;2023-09-19T07:10:40;17.90;99.90
7461;DHT22;6757;52.258;12.840;2023-09-19T07:13:14;17.90;99.90
7461;DHT22;6757;52.258;12.840;2023-09-19T07:15:43;17.90;99.90
7461;DHT22;6757;52.258;12.840;2023-09-19T07:18:13;18.00;99.90
7461;DHT22;6757;52.258;12.840;2023-09-19T07:20:41;18.00;99.90
7461;DHT22;6757;52.258;12.840;2023-09-19T07:23:11;18.00;99.90
7461;DHT22;6757;52.258;12.840;2023-09-19T07:25:41;18.00;99.90
7461;DHT22;6757;52.258;12.840;2023-09-19T07:28:08;18.00;99.90
7461;DHT22;6757;52.258;12.840;2023-09-19T07:30:36;18.00;99.90
7461;DHT22;6757;52.258;12.840;2023-09-19T07:33:04;18.00;99.90
7461;DHT22;6757;52.258;12.840;2023-09-19T07:35:32;18.10;99.90
7461;DHT22;6757;52.258;12.840;2023-09-19T07:37:59;18.10;99.90
7461;DHT22;6757;52.258;12.840;2023-09-19T07:40:28;18.10;99.90
7461;DHT22;6757;52.258;12.840;2023-09-19T07:42:57;18.10;99.90
7461;DHT22;6757;52.258;12.840;2023-09-19T07:45:26;18.10;99.90
7461;DHT22;6757;52.258;12.840;2023-09-19T07:47:55;18.10;99.90
7461;DHT22;6757;52.258;12.840;2023-09-19T07:50:22;18.10;99.90
7461;DHT22;6757;52.258;12.840;2023-09-19T07:52:50;18.00;99.90
7461;DHT22;6757;52.258;12.840;2023-09-19T07:55:18;18.00;99.90
7461;DHT22;6757;52.258;12.840;2023-09-19T07:57:48;18.00;99.90
7461;DHT22;6757;52.258;12.840;2023-09-19T08:00:17;17.90;99.90
7461;DHT22;6757;52.258;12.840;2023-09-19T08:02:44;17.90;99.90
7461;DHT22;6757;52.258;12.840;2023-09-19T08:05:13;17.90;99.90
7461;DHT22;6757;52.258;12.840;2023-09-19T08:07:43;17.80;99.90
7461;DHT22;6757;52.258;12.840;2023-09-19T08:10:14;17.70;99.90
7461;DHT22;6757;52.258;12.840;2023-09-19T08:12:42;17.70;99.90
7461;DHT22;6757;52.258;12.840;2023-09-19T08:15:12;17.60;99.90
7461;DHT22;6757;52.258;12.840;2023-09-19T08:17:41;17.50;99.90
7461;DHT22;6757;52.258;12.840;2023-09-19T08:20:09;17.50;99.90
7461;DHT22;6757;52.258;12.840;2023-09-19T08:22:42;17.40;99.90
7461;DHT22;6757;52.258;12.840;2023-09-19T08:25:13;17.40;99.90
7461;DHT22;6757;52.258;12.840;2023-09-19T08:27:43;17.40;99.90
7461;DHT22;6757;52.258;12.840;2023-09-19T08:30:13;17.30;99.90
7461;DHT22;6757;52.258;12.840;2023-09-19T08:32:42;17.30;99.90
7461;DHT22;6757;52.258;12.840;2023-09-19T08:35:09;17.30;99.90
7461;DHT22;6757;52.258;12.840;2023-09-19T08:37:37;17.30;99.90
7461;DHT22;6757;52.258;12.840;2023-09-19T08:40:04;17.30;99.90
7461;DHT22;6757;52.258;12.840;2023-09-19T08:42:47;17.30;99.90
7461;DHT22;6757;52.258;12.840;2023-09-19T08:45:15;17.20;99.90
7461;DHT22;6757;52.258;12.840;2023-09-19T08:47:46;17.20;99.90
7461;DHT22;6757;52.258;12.840;2023-09-19T08:50:21;17.30;99.90
7461;DHT22;6757;52.258;12.840;2023-09-19T08:52:55;17.30;99.90
7461;DHT22;6757;52.258;12.840;2023-09-19T08:55:27;17.30;99.90
7461;DHT22;6757;52.258;12.840;2023-09-19T08:58:00;17.30;99.90
7461;DHT22;6757;52.258;12.840;2023-09-19T09:00:28;17.40;99.90
7461;DHT22;6757;52.258;12.840;2023-09-19T09:02:58;17.40;99.90
7461;DHT22;6757;52.258;12.840;2023-09-19T09:05:27;17.50;99.90
7461;DHT22;6757;52.258;12.840;2023-09-19T09:07:55;17.50;99.90
7461;DHT22;6757;52.258;12.840;2023-09-19T09:10:23;17.60;99.90
7461;DHT22;6757;52.258;12.840;2023-09-19T09:12:51;17.70;99.90
7461;DHT22;6757;52.258;12.840;2023-09-19T09:15:21;17.80;99.90
7461;DHT22;6757;52.258;12.840;2023-09-19T09:17:50;17.90;99.90
7461;DHT22;6757;52.258;12.840;2023-09-19T09:20:20;18.00;99.90
7461;DHT22;6757;52.258;12.840;2023-09-19T09:22:51;18.10;99.90
7461;DHT22;6757;52.258;12.840;2023-09-19T09:25:19;18.10;99.90
7461;DHT22;6757;52.258;12.840;2023-09-19T09:27:58;18.20;99.90
7461;DHT22;6757;52.258;12.840;2023-09-19T09:30:34;18.20;99.90
7461;DHT22;6757;52.258;12.840;2023-09-19T09:33:11;18.30;99.90
7461;DHT22;6757;52.258;12.840;2023-09-19T09:35:51;18.30;99.90
7461;DHT22;6757;52.258;12.840;2023-09-19T09:38:22;18.40;99.90
7461;DHT22;6757;52.258;12.840;2023-09-19T09:40:53;18.40;99.90
7461;DHT22;6757;52.258;12.840;2023-09-19T09:43:31;18.40;99.90
7461;DHT22;6757;52.258;12.840;2023-09-19T09:46:10;18.50;99.90
7461;DHT22;6757;52.258;12.840;2023-09-19T09:48:57;18.50;99.90
7461;DHT22;6757;52.258;12.840;2023-09-19T09:51:45;18.60;99.90
7461;DHT22;6757;52.258;12.840;2023-09-19T09:54:16;18.60;99.90
7461;DHT22;6757;52.258;12.840;2023-09-19T09:56:54;18.60;99.90
7461;DHT22;6757;52.258;12.840;2023-09-19T09:59:44;18.70;99.90
7461;DHT22;6757;52.258;12.840;2023-09-19T10:02:15;18.70;99.90
7461;DHT22;6757;52.258;12.840;2023-09-19T10:04:49;18.80;99.90
7461;DHT22;6757;52.258;12.840;2023-09-19T10:07:36;18.80;99.90
7461;DHT22;6757;52.258;12.840;2023-09-19T10:10:07;18.90;99.90
7461;DHT22;6757;52.258;12.840;2023-09-19T10:12:43;18.90;99.90
7461;DHT22;6757;52.258;12.840;2023-09-19T10:15:15;19.00;99.90
7461;DHT22;6757;52.258;12.840;2023-09-19T10:17:46;19.00;99.90
7461;DHT22;6757;52.258;12.840;2023-09-19T10:20:15;19.00;99.90
7461;DHT22;6757;52.258;12.840;2023-09-19T10:22:51;19.10;99.90
7461;DHT22;6757;52.258;12.840;2023-09-19T10:25:25;19.10;99.90
7461;DHT22;6757;52.258;12.840;2023-09-19T10:27:54;19.20;99.90
7461;DHT22;6757;52.258;12.840;2023-09-19T10:30:23;19.20;99.90
7461;DHT22;6757;52.258;12.840;2023-09-19T10:32:59;19.30;99.90
7461;DHT22;6757;52.258;12.840;2023-09-19T10:35:27;19.30;99.90
7461;DHT22;6757;52.258;12.840;2023-09-19T10:38:00;19.40;99.90
7461;DHT22;6757;52.258;12.840;2023-09-19T10:40:28;19.40;99.90
7461;DHT22;6757;52.258;12.840;2023-09-19T10:43:02;19.40;99.90
7461;DHT22;6757;52.258;12.840;2023-09-19T10:45:31;19.40;99.90
7461;DHT22;6757;52.258;12.840;2023-09-19T10:47:59;19.40;99.90
7461;DHT22;6757;52.258;12.840;2023-09-19T10:50:29;19.40;99.90
7461;DHT22;6757;52.258;12.840;2023-09-19T10:53:03;19.40;99.90
7461;DHT22;6757;52.258;12.840;2023-09-19T10:55:33;19.50;99.90
7461;DHT22;6757;52.258;12.840;2023-09-19T10:58:02;19.50;99.90
7461;DHT22;6757;52.258;12.840;2023-09-19T11:00:51;19.60;99.90
7461;DHT22;6757;52.258;12.840;2023-09-19T11:03:20;19.70;99.90
7461;DHT22;6757;52.258;12.840;2023-09-19T11:06:05;19.70;99.90
7461;DHT22;6757;52.258;12.840;2023-09-19T11:08:56;19.70;99.90
7461;DHT22;6757;52.258;12.840;2023-09-19T11:11:42;19.70;99.90
7461;DHT22;6757;52.258;12.840;2023-09-19T11:17:34;19.80;99.90
7461;DHT22;6757;52.258;12.840;2023-09-19T11:20:32;19.90;99.90
7461;DHT22;6757;52.258;12.840;2023-09-19T11:23:18;20.00;99.60
7461;DHT22;6757;52.258;12.840;2023-09-19T11:25:50;20.20;99.40
7461;DHT22;6757;52.258;12.840;2023-09-19T11:28:34;20.30;99.20
7461;DHT22;6757;52.258;12.840;2023-09-19T11:34:40;20.40;98.10
7461;DHT22;6757;52.258;12.840;2023-09-19T11:40:37;20.50;97.50
7461;DHT22;6757;52.258;12.840;2023-09-19T11:43:31;20.50;97.10
7461;DHT22;6757;52.258;12.840;2023-09-19T11:46:06;20.60;96.90
7461;DHT22;6757;52.258;12.840;2023-09-19T11:48:35;20.60;96.80
7461;DHT22;6757;52.258;12.840;2023-09-19T11:51:19;20.70;96.70
7461;DHT22;6757;52.258;12.840;2023-09-19T11:53:49;20.70;96.20
7461;DHT22;6757;52.258;12.840;2023-09-19T11:56:17;20.70;95.80
7461;DHT22;6757;52.258;12.840;2023-09-19T11:58:49;20.70;95.80
7461;DHT22;6757;52.258;12.840;2023-09-19T12:01:22;20.70;95.50
7461;DHT22;6757;52.258;12.840;2023-09-19T12:03:54;20.70;95.40
7461;DHT22;6757;52.258;12.840;2023-09-19T12:06:23;20.70;95.30
7461;DHT22;6757;52.258;12.840;2023-09-19T12:08:51;20.80;95.40
7461;DHT22;6757;52.258;12.840;2023-09-19T12:11:21;20.80;95.00
7461;DHT22;6757;52.258;12.840;2023-09-19T12:13:51;20.80;94.70
7461;DHT22;6757;52.258;12.840;2023-09-19T12:16:20;20.90;94.60
7461;DHT22;6757;52.258;12.840;2023-09-19T12:18:50;21.00;94.40
7461;DHT22;6757;52.258;12.840;2023-09-19T12:21:23;21.10;94.20
7461;DHT22;6757;52.258;12.840;2023-09-19T12:24:06;21.10;93.80
7461;DHT22;6757;52.258;12.840;2023-09-19T12:26:40;21.10;93.70
7461;DHT22;6757;52.258;12.840;2023-09-19T12:29:19;21.20;93.70
7461;DHT22;6757;52.258;12.840;2023-09-19T12:31:53;21.20;93.40
7461;DHT22;6757;52.258;12.840;2023-09-19T12:34:27;21.20;93.40
7461;DHT22;6757;52.258;12.840;2023-09-19T12:37:04;21.20;93.50
7461;DHT22;6757;52.258;12.840;2023-09-19T12:39:37;21.20;93.30
7461;DHT22;6757;52.258;12.840;2023-09-19T12:42:10;21.20;92.90
7461;DHT22;6757;52.258;12.840;2023-09-19T12:44:42;21.20;92.90
7461;DHT22;6757;52.258;12.840;2023-09-19T12:47:14;21.20;92.50
7461;DHT22;6757;52.258;12.840;2023-09-19T12:50:07;21.20;92.50
7461;DHT22;6757;52.258;12.840;2023-09-19T12:52:39;21.20;92.60
7461;DHT22;6757;52.258;12.840;2023-09-19T12:55:10;21.30;92.60
7461;DHT22;6757;52.258;12.840;2023-09-19T12:57:56;21.30;92.50
7461;DHT22;6757;52.258;12.840;2023-09-19T13:00:33;21.40;92.20
7461;DHT22;6757;52.258;12.840;2023-09-19T13:03:14;21.40;91.80
7461;DHT22;6757;52.258;12.840;2023-09-19T13:05:54;21.50;91.50
7461;DHT22;6757;52.258;12.840;2023-09-19T13:08:27;21.50;91.30
7461;DHT22;6757;52.258;12.840;2023-09-19T13:11:09;21.60;91.10
7461;DHT22;6757;52.258;12.840;2023-09-19T13:13:39;21.80;91.10
7461;DHT22;6757;52.258;12.840;2023-09-19T13:16:11;21.90;90.90
7461;DHT22;6757;52.258;12.840;2023-09-19T13:18:44;22.00;90.40
7461;DHT22;6757;52.258;12.840;2023-09-19T13:21:13;22.00;90.30
7461;DHT22;6757;52.258;12.840;2023-09-19T13:23:50;21.90;90.30
7461;DHT22;6757;52.258;12.840;2023-09-19T13:26:18;21.90;90.50
7461;DHT22;6757;52.258;12.840;2023-09-19T13:28:45;21.80;90.20
7461;DHT22;6757;52.258;12.840;2023-09-19T13:31:16;21.90;90.20
7461;DHT22;6757;52.258;12.840;2023-09-19T13:33:44;21.90;90.00
7461;DHT22;6757;52.258;12.840;2023-09-19T13:36:12;21.90;89.60
7461;DHT22;6757;52.258;12.840;2023-09-19T13:38:40;22.00;89.70
7461;DHT22;6757;52.258;12.840;2023-09-19T13:41:08;22.00;89.50
7461;DHT22;6757;52.258;12.840;2023-09-19T13:43:35;22.20;88.30
7461;DHT22;6757;52.258;12.840;2023-09-19T13:46:02;22.30;87.90
7461;DHT22;6757;52.258;12.840;2023-09-19T13:48:30;22.60;87.80
7461;DHT22;6757;52.258;12.840;2023-09-19T13:51:01;22.80;86.90
7461;DHT22;6757;52.258;12.840;2023-09-19T13:53:28;23.00;85.70
7461;DHT22;6757;52.258;12.840;2023-09-19T13:55:55;23.20;84.70
7461;DHT22;6757;52.258;12.840;2023-09-19T13:58:23;23.40;83.80
7461;DHT22;6757;52.258;12.840;2023-09-19T14:00:49;23.40;83.60
7461;DHT22;6757;52.258;12.840;2023-09-19T14:03:16;23.50;83.50
7461;DHT22;6757;52.258;12.840;2023-09-19T14:05:47;23.50;83.40
7461;DHT22;6757;52.258;12.840;2023-09-19T14:08:17;23.60;81.80
7461;DHT22;6757;52.258;12.840;2023-09-19T14:10:44;23.40;81.30
7461;DHT22;6757;52.258;12.840;2023-09-19T14:13:11;23.20;81.30
7461;DHT22;6757;52.258;12.840;2023-09-19T14:15:40;23.10;81.70
7461;DHT22;6757;52.258;12.840;2023-09-19T14:18:08;23.10;81.90
7461;DHT22;6757;52.258;12.840;2023-09-19T14:20:38;23.00;81.90
7461;DHT22;6757;52.258;12.840;2023-09-19T14:23:08;22.90;82.20
7461;DHT22;6757;52.258;12.840;2023-09-19T14:25:35;22.90;82.20
7461;DHT22;6757;52.258;12.840;2023-09-19T14:28:04;22.80;82.10
7461;DHT22;6757;52.258;12.840;2023-09-19T14:30:33;22.70;82.20
7461;DHT22;6757;52.258;12.840;2023-09-19T14:33:00;22.60;82.50
7461;DHT22;6757;52.258;12.840;2023-09-19T14:35:27;22.50;82.80
7461;DHT22;6757;52.258;12.840;2023-09-19T14:37:54;22.40;83.10
7461;DHT22;6757;52.258;12.840;2023-09-19T14:40:23;22.30;83.30
7461;DHT22;6757;52.258;12.840;2023-09-19T14:42:51;22.10;83.70
7461;DHT22;6757;52.258;12.840;2023-09-19T14:45:18;22.00;84.20
7461;DHT22;6757;52.258;12.840;2023-09-19T14:47:46;21.80;84.50
7461;DHT22;6757;52.258;12.840;2023-09-19T14:50:13;21.70;85.10
7461;DHT22;6757;52.258;12.840;2023-09-19T14:52:41;21.70;85.60
7461;DHT22;6757;52.258;12.840;2023-09-19T14:55:08;21.70;86.10
7461;DHT22;6757;52.258;12.840;2023-09-19T14:57:41;21.70;86.20
7461;DHT22;6757;52.258;12.840;2023-09-19T15:00:11;21.70;86.20
7461;DHT22;6757;52.258;12.840;2023-09-19T15:02:39;21.70;86.30
7461;DHT22;6757;52.258;12.840;2023-09-19T15:05:07;21.80;86.50
7461;DHT22;6757;52.258;12.840;2023-09-19T15:07:35;21.90;86.30
7461;DHT22;6757;52.258;12.840;2023-09-19T15:10:04;22.00;86.30
7461;DHT22;6757;52.258;12.840;2023-09-19T15:12:32;22.10;86.30
7461;DHT22;6757;52.258;12.840;2023-09-19T15:15:01;22.10;85.90
7461;DHT22;6757;52.258;12.840;2023-09-19T15:17:30;22.20;85.50
7461;DHT22;6757;52.258;12.840;2023-09-19T15:19:57;22.30;85.20
7461;DHT22;6757;52.258;12.840;2023-09-19T15:22:25;22.40;84.10
7461;DHT22;6757;52.258;12.840;2023-09-19T15:24:52;22.50;83.00
7461;DHT22;6757;52.258;12.840;2023-09-19T15:27:19;22.60;82.60
7461;DHT22;6757;52.258;12.840;2023-09-19T15:29:46;22.50;82.10
7461;DHT22;6757;52.258;12.840;2023-09-19T15:32:14;22.40;82.00
7461;DHT22;6757;52.258;12.840;2023-09-19T15:34:41;22.40;82.10
7461;DHT22;6757;52.258;12.840;2023-09-19T15:37:08;22.40;81.60
7461;DHT22;6757;52.258;12.840;2023-09-19T15:39:34;22.50;81.60
7461;DHT22;6757;52.258;12.840;2023-09-19T15:42:03;22.50;81.60
7461;DHT22;6757;52.258;12.840;2023-09-19T15:44:30;22.70;81.60
7461;DHT22;6757;52.258;12.840;2023-09-19T15:46:58;22.80;81.10
7461;DHT22;6757;52.258;12.840;2023-09-19T15:49:26;23.10;80.90
7461;DHT22;6757;52.258;12.840;2023-09-19T15:51:53;23.30;80.60
7461;DHT22;6757;52.258;12.840;2023-09-19T15:54:20;23.40;79.90
7461;DHT22;6757;52.258;12.840;2023-09-19T15:56:47;23.50;78.90
7461;DHT22;6757;52.258;12.840;2023-09-19T15:59:16;23.50;78.20
7461;DHT22;6757;52.258;12.840;2023-09-19T16:01:44;23.40;78.10
7461;DHT22;6757;52.258;12.840;2023-09-19T16:04:12;23.10;77.70
7461;DHT22;6757;52.258;12.840;2023-09-19T16:06:41;22.80;77.80
7461;DHT22;6757;52.258;12.840;2023-09-19T16:09:08;22.50;78.00
7461;DHT22;6757;52.258;12.840;2023-09-19T16:11:36;22.20;78.40
7461;DHT22;6757;52.258;12.840;2023-09-19T16:14:04;22.00;79.00
7461;DHT22;6757;52.258;12.840;2023-09-19T16:16:31;21.70;79.40